KBHM/BHM METAR and TAF weather

Enter ICAO airport designator
Station Type Date Time Source
KBHM METAR 2021/05/13 06:27 UTC NOAA

KBHM 130627Z 09005KT 10SM BKN013 12/09 A3026 RMK AO2 T01220089


Station Type Date Time Source
KBHM Decoded METAR 2021/05/13 06:27 UTC NOAA

BIRMINGHAM INT'L AIRPORT, AL, United States (KBHM) 33-34N 086-45W 197M
May 13, 2021 - 02:27 AM EDT / 2021.05.13 0627 UTC
Wind: from the E (090 degrees) at 6 MPH (5 KT):0
Visibility: 10 mile(s):0
Sky conditions: mostly cloudy
Temperature: 54.0 F (12.2 C)
Dew Point: 48.0 F (8.9 C)
Relative Humidity: 80%
Pressure (altimeter): 30.26 in. Hg (1024 hPa)
ob: KBHM 130627Z 09005KT 10SM BKN013 12/09 A3026 RMK AO2 T01220089
cycle: 6

Station Type Date Time Source
KBHM TAF 2021/05/13 06:30 UTC NOAA

TAF KBHM 130527Z 1306/1406 08005KT P6SM SCT040
TEMPO 1306/1308 BKN011
FM131900 01006KT P6SM SCT050

Example: see airport list